createdAt,value
2019-03-12T00:00:08.696Z,5.13
2019-03-12T00:02:42.673Z,6.27
2019-03-12T00:05:14.578Z,5.53
2019-03-12T00:07:46.847Z,4.50
2019-03-12T00:10:18.737Z,4.77
2019-03-12T00:12:50.647Z,6.10
2019-03-12T00:15:22.904Z,7.07
2019-03-12T00:17:54.815Z,5.07
2019-03-12T00:20:27.294Z,5.53
2019-03-12T00:22:59.164Z,5.20
2019-03-12T00:25:30.948Z,6.37
2019-03-12T00:28:02.783Z,6.27
2019-03-12T00:30:34.638Z,5.50
2019-03-12T00:33:07.020Z,4.70
2019-03-12T00:35:38.850Z,7.23
2019-03-12T00:38:10.703Z,5.90
2019-03-12T00:40:42.587Z,5.73
2019-03-12T00:43:14.503Z,4.07
2019-03-12T00:45:47.004Z,5.30
2019-03-12T00:48:18.830Z,5.17
2019-03-12T00:50:50.678Z,7.53
2019-03-12T00:53:23.079Z,5.50
2019-03-12T00:55:55.256Z,4.53
2019-03-12T00:58:27.128Z,3.80
2019-03-12T01:00:59.990Z,4.37
2019-03-12T01:03:32.382Z,4.40
2019-03-12T01:06:05.426Z,5.27
2019-03-12T01:08:37.335Z,5.00
2019-03-12T01:11:09.706Z,3.87
2019-03-12T01:13:41.561Z,5.50
2019-03-12T01:16:13.454Z,3.30
2019-03-12T01:18:45.301Z,4.00
2019-03-12T01:21:18.051Z,3.93
2019-03-12T01:23:49.931Z,6.30
2019-03-12T01:26:30.221Z,3.47
2019-03-12T01:29:02.121Z,3.80
2019-03-12T01:31:34.009Z,3.00
2019-03-12T01:34:05.860Z,6.20
2019-03-12T01:36:38.140Z,5.03
2019-03-12T01:39:10.057Z,4.77
2019-03-12T01:41:41.963Z,5.77
2019-03-12T01:44:13.859Z,3.90
2019-03-12T01:46:45.690Z,4.37
2019-03-12T01:49:17.663Z,4.20
2019-03-12T01:51:49.515Z,3.37
2019-03-12T01:54:23.535Z,3.27
2019-03-12T01:56:55.410Z,4.50
2019-03-12T01:59:27.299Z,2.67
2019-03-12T02:01:59.155Z,4.30
2019-03-12T02:04:31.030Z,3.47
2019-03-12T02:07:02.877Z,4.20
2019-03-12T02:09:35.431Z,2.90
2019-03-12T02:12:07.265Z,2.93
2019-03-12T02:14:39.129Z,4.33
2019-03-12T02:17:11.497Z,3.57
2019-03-12T02:19:43.991Z,5.53
2019-03-12T02:22:15.892Z,5.53
2019-03-12T02:24:52.820Z,5.10
2019-03-12T02:27:21.810Z,5.23
2019-03-12T02:29:53.640Z,4.50
2019-03-12T02:32:25.535Z,5.10
2019-03-12T02:34:57.923Z,5.93
2019-03-12T02:37:29.732Z,4.20
2019-03-12T02:40:01.582Z,7.27
2019-03-12T02:42:33.452Z,5.07
2019-03-12T02:45:06.374Z,6.60
2019-03-12T02:47:38.359Z,5.20
2019-03-12T02:50:11.723Z,6.83
2019-03-12T02:52:43.696Z,6.50
2019-03-12T02:55:16.470Z,5.63
2019-03-12T02:57:48.351Z,8.30
2019-03-12T03:00:22.105Z,7.47
2019-03-12T03:02:54.400Z,8.90
2019-03-12T03:05:26.732Z,8.80
2019-03-12T03:08:01.321Z,8.73
2019-03-12T03:10:33.242Z,7.83
2019-03-12T03:13:05.647Z,7.20
2019-03-12T03:15:41.392Z,9.07
2019-03-12T03:18:13.665Z,7.47
2019-03-12T03:20:46.088Z,8.10
2019-03-12T03:23:18.021Z,8.37
2019-03-12T03:25:50.461Z,9.17
2019-03-12T03:28:22.272Z,9.53
2019-03-12T03:30:55.753Z,12.63
2019-03-12T03:33:28.176Z,10.03
2019-03-12T03:36:01.012Z,10.13
2019-03-12T03:38:33.213Z,10.20
2019-03-12T03:41:05.128Z,9.67
2019-03-12T03:43:37.039Z,8.30
2019-03-12T03:46:09.602Z,10.77
2019-03-12T03:48:41.461Z,10.10
2019-03-12T03:51:13.285Z,9.57
2019-03-12T03:53:45.733Z,8.30
2019-03-12T03:56:17.692Z,9.27
2019-03-12T03:58:49.968Z,8.33
2019-03-12T04:01:21.816Z,6.70
2019-03-12T04:03:53.675Z,8.30
2019-03-12T04:06:25.402Z,9.60
2019-03-12T04:08:57.997Z,8.10
2019-03-12T04:11:29.820Z,7.87
2019-03-12T04:14:02.309Z,8.27
2019-03-12T04:16:34.647Z,8.07
2019-03-12T04:19:06.572Z,9.77
2019-03-12T04:21:39.457Z,12.20
2019-03-12T04:24:11.412Z,10.27
2019-03-12T04:26:43.248Z,7.90
2019-03-12T04:29:15.613Z,6.67
2019-03-12T04:31:47.543Z,8.87
2019-03-12T04:34:28.861Z,6.43
2019-03-12T04:37:00.670Z,8.53
2019-03-12T04:39:32.566Z,10.10
2019-03-12T04:42:04.469Z,11.53
2019-03-12T04:44:36.507Z,9.23
2019-03-12T04:47:08.414Z,8.07
2019-03-12T04:49:40.359Z,6.50
2019-03-12T04:52:12.263Z,8.17
2019-03-12T04:54:44.086Z,8.27
2019-03-12T04:57:16.596Z,7.93
2019-03-12T04:59:48.456Z,6.63
2019-03-12T05:02:20.391Z,8.03
2019-03-12T05:04:52.708Z,8.13
2019-03-12T05:07:24.550Z,7.10
2019-03-12T05:09:56.450Z,5.77
2019-03-12T05:12:30.663Z,5.90
2019-03-12T05:15:02.282Z,8.50
2019-03-12T05:17:36.293Z,5.90
2019-03-12T05:20:11.017Z,6.77
2019-03-12T05:22:43.316Z,7.23
2019-03-12T05:25:15.413Z,6.17
2019-03-12T05:27:47.266Z,9.60
2019-03-12T05:30:24.442Z,7.00
2019-03-12T05:32:56.473Z,6.97
2019-03-12T05:35:28.395Z,8.00
2019-03-12T05:38:00.288Z,9.13
2019-03-12T05:40:32.197Z,8.10
2019-03-12T05:43:05.366Z,8.73
2019-03-12T05:45:37.286Z,7.03
2019-03-12T05:48:09.161Z,6.43
2019-03-12T05:50:41.640Z,7.17
2019-03-12T05:53:14.357Z,9.27
2019-03-12T05:55:46.232Z,6.67
2019-03-12T05:58:18.602Z,9.33
2019-03-12T06:00:56.445Z,7.07
2019-03-12T06:03:31.040Z,8.60
2019-03-12T06:06:07.323Z,10.13
2019-03-12T06:08:39.316Z,8.47
2019-03-12T06:11:11.583Z,10.37
2019-03-12T06:13:45.471Z,8.30
2019-03-12T06:16:17.438Z,7.70
2019-03-12T06:19:07.100Z,8.23
2019-03-12T06:21:39.984Z,8.53
2019-03-12T06:24:13.014Z,8.67
2019-03-12T06:26:46.071Z,7.70
2019-03-12T06:29:17.910Z,9.00
2019-03-12T06:32:07.654Z,8.10
2019-03-12T06:34:52.547Z,7.90
2019-03-12T06:37:53.033Z,8.60
2019-03-12T06:40:35.541Z,9.87
2019-03-12T06:43:21.774Z,11.60
2019-03-12T06:46:11.863Z,7.83
2019-03-12T06:49:09.127Z,8.80
2019-03-12T06:51:59.570Z,9.13
2019-03-12T06:54:38.737Z,6.93
2019-03-12T06:57:32.339Z,6.50
2019-03-12T07:00:29.179Z,7.60
2019-03-12T07:03:27.319Z,7.80
2019-03-12T07:06:20.814Z,8.70
2019-03-12T07:09:10.112Z,7.53
2019-03-12T07:11:49.471Z,5.57
2019-03-12T07:14:46.833Z,7.20
2019-03-12T07:17:36.170Z,6.63
2019-03-12T07:20:27.200Z,8.30
2019-03-12T07:23:12.592Z,7.97
2019-03-12T07:26:06.538Z,9.67
2019-03-12T07:29:15.583Z,9.10
2019-03-12T07:32:09.029Z,7.57
2019-03-12T07:35:02.521Z,9.40
2019-03-12T07:37:52.922Z,8.90
2019-03-12T07:40:40.243Z,9.57
2019-03-12T07:43:31.942Z,8.43
2019-03-12T07:46:10.404Z,12.53
2019-03-12T07:49:00.451Z,7.97
2019-03-12T07:51:51.634Z,9.17
2019-03-12T07:54:40.836Z,11.77
2019-03-12T07:57:31.658Z,9.03
2019-03-12T08:00:12.487Z,15.23
2019-03-12T08:03:01.771Z,6.73
2019-03-12T08:05:55.947Z,10.60
2019-03-12T08:08:36.277Z,12.13
2019-03-12T08:11:21.219Z,9.03
2019-03-12T08:14:18.671Z,9.70
2019-03-12T08:17:09.345Z,11.77
2019-03-12T08:20:15.947Z,9.87
2019-03-12T08:22:59.656Z,12.47
2019-03-12T08:26:08.899Z,14.07
2019-03-12T08:28:47.796Z,8.33
2019-03-12T08:31:29.542Z,9.53
2019-03-12T08:34:35.321Z,9.13
2019-03-12T08:37:14.744Z,8.37
2019-03-12T08:40:00.474Z,12.07
2019-03-12T08:42:53.756Z,14.93
2019-03-12T08:45:41.248Z,10.63
2019-03-12T08:48:41.238Z,9.53
2019-03-12T08:51:50.128Z,12.03
2019-03-12T08:54:29.276Z,7.30
2019-03-12T08:57:19.123Z,14.63
2019-03-12T09:00:10.259Z,9.97
2019-03-12T09:02:52.053Z,10.00
2019-03-12T09:05:54.674Z,14.93
2019-03-12T09:08:36.815Z,14.07
2019-03-12T09:11:30.623Z,8.53
2019-03-12T09:14:33.591Z,10.73
2019-03-12T09:17:24.809Z,9.53
2019-03-12T09:20:20.081Z,8.40
2019-03-12T09:23:13.608Z,12.93
2019-03-12T09:26:03.056Z,11.23
2019-03-12T09:29:00.468Z,9.93
2019-03-12T09:31:50.469Z,10.23
2019-03-12T09:34:51.286Z,10.53
2019-03-12T09:37:31.877Z,8.50
2019-03-12T09:40:10.905Z,11.20
2019-03-12T09:43:07.743Z,10.17
2019-03-12T09:45:55.164Z,9.07
2019-03-12T09:48:36.128Z,12.13
2019-03-12T09:51:27.199Z,7.87
2019-03-12T09:54:10.273Z,7.60
2019-03-12T09:57:01.007Z,6.70
2019-03-12T09:59:52.711Z,7.63
2019-03-12T10:02:52.373Z,10.20
2019-03-12T10:05:49.820Z,8.60
2019-03-12T10:08:56.390Z,10.07
2019-03-12T10:11:38.197Z,7.83
2019-03-12T10:14:41.252Z,7.70
2019-03-12T10:17:45.080Z,7.10
2019-03-12T10:20:34.924Z,8.60
2019-03-12T10:23:24.439Z,9.60
2019-03-12T10:26:21.387Z,9.97
2019-03-12T10:29:15.582Z,5.27
2019-03-12T10:32:09.304Z,6.70
2019-03-12T10:35:18.180Z,5.70
2019-03-12T10:38:14.118Z,8.93
2019-03-12T10:41:08.372Z,7.93
2019-03-12T10:43:55.563Z,6.33
2019-03-12T10:46:50.039Z,7.53
2019-03-12T10:49:36.643Z,10.07
2019-03-12T10:51:55.971Z,6.70
2019-03-12T10:54:29.223Z,10.40
2019-03-12T10:57:01.088Z,4.93
2019-03-12T10:59:33.375Z,4.10
2019-03-12T11:02:06.518Z,6.53
2019-03-12T11:04:39.835Z,6.17
2019-03-12T11:07:16.867Z,7.50
2019-03-12T11:09:46.943Z,7.63
2019-03-12T11:12:18.803Z,6.90
2019-03-12T11:14:51.133Z,6.73
2019-03-12T11:17:23.811Z,5.00
2019-03-12T11:19:56.218Z,5.47
2019-03-12T11:22:28.692Z,7.17
2019-03-12T11:25:00.559Z,6.67
2019-03-12T11:27:32.914Z,5.57
2019-03-12T11:30:06.260Z,6.93
2019-03-12T11:32:39.122Z,4.30
2019-03-12T11:35:12.163Z,4.83
2019-03-12T11:37:44.063Z,7.00
2019-03-12T11:40:17.854Z,6.83
2019-03-12T11:42:50.638Z,7.33
2019-03-12T11:45:35.608Z,4.87
2019-03-12T11:47:57.184Z,6.43
2019-03-12T11:50:30.485Z,6.97
2019-03-12T11:53:02.566Z,6.20
2019-03-12T11:55:34.932Z,7.37
2019-03-12T11:58:07.177Z,6.27
2019-03-12T12:00:57.151Z,5.37
2019-03-12T12:03:29.553Z,6.67
2019-03-12T12:06:01.518Z,7.10
2019-03-12T12:08:34.037Z,5.93
2019-03-12T12:11:06.878Z,7.17
2019-03-12T12:13:40.277Z,6.43
2019-03-12T12:16:12.091Z,8.10
2019-03-12T12:18:43.972Z,5.30
2019-03-12T12:21:16.018Z,3.37
2019-03-12T12:23:48.875Z,6.90
2019-03-12T12:26:20.759Z,5.23
2019-03-12T12:28:53.239Z,7.90
2019-03-12T12:31:25.165Z,6.87
2019-03-12T12:33:57.502Z,6.57
2019-03-12T12:36:29.437Z,4.27
2019-03-12T12:39:01.330Z,5.70
2019-03-12T12:41:35.273Z,4.80
2019-03-12T12:44:08.166Z,6.80
2019-03-12T12:46:40.087Z,3.90
2019-03-12T12:49:13.123Z,5.73
2019-03-12T12:51:45.097Z,5.63
2019-03-12T12:54:17.390Z,5.60
2019-03-12T12:56:49.239Z,6.17
2019-03-12T12:59:21.818Z,5.33
2019-03-12T13:01:53.699Z,5.50
2019-03-12T13:04:26.303Z,6.27
2019-03-12T13:06:58.192Z,5.77
2019-03-12T13:09:30.569Z,4.23
2019-03-12T13:12:02.479Z,5.23
2019-03-12T13:14:41.405Z,6.70
2019-03-12T13:17:08.814Z,5.60
2019-03-12T13:19:40.767Z,4.30
2019-03-12T13:22:13.366Z,5.77
2019-03-12T13:24:45.801Z,5.07
2019-03-12T13:27:17.827Z,4.93
2019-03-12T13:29:49.659Z,3.60
2019-03-12T13:32:21.702Z,3.40
2019-03-12T13:34:54.034Z,4.50
2019-03-12T13:37:26.460Z,4.63
2019-03-12T13:39:58.432Z,5.83
2019-03-12T13:42:30.352Z,2.27
2019-03-12T13:45:02.331Z,3.93
2019-03-12T13:47:34.411Z,3.00
2019-03-12T13:50:07.135Z,5.80
2019-03-12T13:52:39.423Z,2.70
2019-03-12T13:55:11.889Z,5.73
2019-03-12T13:57:43.971Z,3.63
2019-03-12T14:00:18.260Z,4.57
2019-03-12T14:02:50.713Z,3.83
2019-03-12T14:05:22.603Z,4.03
2019-03-12T14:07:55.626Z,3.43
2019-03-12T14:10:27.680Z,3.23
2019-03-12T14:13:00.638Z,4.30
2019-03-12T14:15:32.567Z,3.67
2019-03-12T14:18:04.628Z,2.97
2019-03-12T14:20:47.940Z,3.90
2019-03-12T14:23:37.675Z,2.27
2019-03-12T14:26:10.467Z,3.13
2019-03-12T14:28:42.794Z,3.07
2019-03-12T14:31:15.062Z,3.77
2019-03-12T14:33:46.988Z,5.97
2019-03-12T14:36:19.594Z,2.10
2019-03-12T14:38:51.415Z,4.13
2019-03-12T14:41:23.435Z,2.90
2019-03-12T14:43:56.324Z,3.80
2019-03-12T14:46:28.350Z,3.97
2019-03-12T14:49:04.259Z,3.70
2019-03-12T14:52:05.995Z,3.40
2019-03-12T14:54:38.422Z,4.47
2019-03-12T14:57:10.741Z,3.80
2019-03-12T14:59:43.988Z,5.83
2019-03-12T15:02:15.919Z,4.70
2019-03-12T15:04:47.879Z,4.23
2019-03-12T15:07:19.790Z,3.73
2019-03-12T15:09:52.010Z,2.87
2019-03-12T15:12:23.948Z,4.93
2019-03-12T15:14:55.903Z,4.37
2019-03-12T15:17:28.375Z,2.80
2019-03-12T15:20:00.375Z,4.60
2019-03-12T15:22:32.800Z,4.07
2019-03-12T15:25:05.887Z,3.50
2019-03-12T15:27:37.724Z,3.70
2019-03-12T15:30:13.212Z,2.70
2019-03-12T15:32:45.738Z,4.67
2019-03-12T15:35:17.688Z,4.97
2019-03-12T15:37:50.118Z,2.30
2019-03-12T15:40:22.762Z,4.77
2019-03-12T15:42:55.232Z,2.27
2019-03-12T15:45:29.751Z,2.87
2019-03-12T15:48:02.533Z,3.57
2019-03-12T15:50:35.438Z,3.23
2019-03-12T15:53:07.875Z,4.63
2019-03-12T15:55:40.274Z,3.37
2019-03-12T15:58:12.657Z,5.03
2019-03-12T16:00:45.542Z,6.17
2019-03-12T16:03:18.039Z,4.77
2019-03-12T16:05:49.889Z,4.13
2019-03-12T16:08:22.379Z,3.50
2019-03-12T16:10:58.180Z,4.23
2019-03-12T16:13:28.423Z,3.47
2019-03-12T16:16:00.275Z,3.90
2019-03-12T16:18:33.122Z,3.07
2019-03-12T16:21:05.027Z,3.20
2019-03-12T16:23:36.938Z,3.70
2019-03-12T16:26:10.137Z,4.73
2019-03-12T16:28:42.014Z,3.00
2019-03-12T16:31:17.621Z,3.20
2019-03-12T16:33:50.456Z,2.47
2019-03-12T16:36:24.027Z,3.73
2019-03-12T16:38:56.392Z,6.50
2019-03-12T16:41:28.622Z,4.60
2019-03-12T16:44:00.966Z,2.83
2019-03-12T16:46:32.876Z,3.77
2019-03-12T16:49:06.701Z,3.33
2019-03-12T16:51:39.067Z,4.57
2019-03-12T16:54:11.386Z,3.70
2019-03-12T16:56:45.593Z,3.13
2019-03-12T16:59:17.622Z,4.53
2019-03-12T17:01:49.516Z,3.10
2019-03-12T17:04:21.362Z,3.47
2019-03-12T17:06:53.251Z,4.37
2019-03-12T17:09:25.931Z,4.63
2019-03-12T17:11:58.274Z,2.33
2019-03-12T17:14:38.710Z,4.90
2019-03-12T17:17:04.174Z,3.40
2019-03-12T17:19:36.037Z,3.47
2019-03-12T17:22:07.903Z,3.87
2019-03-12T17:24:39.774Z,5.23
2019-03-12T17:27:12.109Z,5.87
2019-03-12T17:29:44.035Z,3.80
2019-03-12T17:32:18.601Z,2.80
2019-03-12T17:34:51.111Z,4.73
2019-03-12T17:37:23.407Z,2.83
2019-03-12T17:39:55.310Z,5.10
2019-03-12T17:42:27.610Z,3.40
2019-03-12T17:45:00.433Z,2.63
2019-03-12T17:47:32.666Z,4.43
2019-03-12T17:50:05.483Z,4.83
2019-03-12T17:52:37.363Z,1.97
2019-03-12T17:55:10.699Z,3.40
2019-03-12T17:57:43.862Z,2.70
2019-03-12T18:00:18.968Z,2.67
2019-03-12T18:02:51.433Z,2.70
2019-03-12T18:05:23.863Z,2.90
2019-03-12T18:07:56.636Z,3.50
2019-03-12T18:10:29.549Z,4.60
2019-03-12T18:13:01.488Z,3.23
2019-03-12T18:15:34.635Z,4.00
2019-03-12T18:18:06.479Z,2.83
2019-03-12T18:20:39.087Z,5.93
2019-03-12T18:23:11.607Z,3.47
2019-03-12T18:25:43.887Z,3.40
2019-03-12T18:28:16.691Z,3.20
2019-03-12T18:30:49.557Z,5.87
2019-03-12T18:33:22.363Z,5.37
2019-03-12T18:35:55.185Z,2.30
2019-03-12T18:38:27.608Z,5.40
2019-03-12T18:40:59.521Z,2.53
2019-03-12T18:43:31.932Z,2.80
2019-03-12T18:46:04.493Z,2.33
2019-03-12T18:48:36.907Z,2.70
2019-03-12T18:51:09.350Z,4.27
2019-03-12T18:53:41.786Z,3.47
2019-03-12T18:56:14.190Z,2.60
2019-03-12T18:58:46.695Z,4.43
2019-03-12T19:01:19.087Z,4.23
2019-03-12T19:03:51.057Z,4.50
2019-03-12T19:06:23.594Z,5.70
2019-03-12T19:08:56.397Z,5.10
2019-03-12T19:11:29.304Z,2.20
2019-03-12T19:14:02.241Z,4.63
2019-03-12T19:16:35.095Z,2.63
2019-03-12T19:19:08.494Z,2.80
2019-03-12T19:21:41.734Z,4.43
2019-03-12T19:24:14.066Z,3.13
2019-03-12T19:26:45.868Z,2.43
2019-03-12T19:29:19.062Z,2.33
2019-03-12T19:32:09.938Z,3.23
2019-03-12T19:34:42.018Z,2.77
2019-03-12T19:37:14.465Z,4.87
2019-03-12T19:39:46.348Z,2.33
2019-03-12T19:42:18.751Z,3.83
2019-03-12T19:44:51.043Z,4.57
2019-03-12T19:47:22.945Z,2.43
2019-03-12T19:49:55.779Z,2.97
2019-03-12T19:52:27.711Z,2.47
2019-03-12T19:54:59.887Z,2.70
2019-03-12T19:57:31.867Z,2.63
2019-03-12T20:00:04.305Z,2.50
2019-03-12T20:02:37.826Z,4.97
2019-03-12T20:05:11.451Z,3.30
2019-03-12T20:07:43.436Z,3.20
2019-03-12T20:10:53.708Z,2.90
2019-03-12T20:14:02.318Z,3.17
2019-03-12T20:17:13.805Z,2.07
2019-03-12T20:20:21.746Z,3.30
2019-03-12T20:23:37.558Z,2.30
2019-03-12T20:26:46.070Z,1.83
2019-03-12T20:29:54.919Z,2.03
2019-03-12T20:33:06.877Z,1.83
2019-03-12T20:36:27.111Z,3.60
2019-03-12T20:39:38.752Z,2.27
2019-03-12T20:42:58.988Z,2.37
2019-03-12T20:46:10.748Z,3.20
2019-03-12T20:49:18.422Z,2.13
2019-03-12T20:53:04.570Z,2.73
2019-03-12T20:56:32.318Z,1.53
2019-03-12T20:59:49.815Z,2.73
2019-03-12T21:03:04.715Z,1.80
2019-03-12T21:06:12.460Z,2.70
2019-03-12T21:09:26.998Z,2.57
2019-03-12T21:12:35.603Z,4.83
2019-03-12T21:15:53.818Z,1.97
2019-03-12T21:19:21.367Z,2.13
2019-03-12T21:22:24.135Z,1.77
2019-03-12T21:25:34.608Z,1.40
2019-03-12T21:28:45.874Z,3.20
2019-03-12T21:31:17.765Z,2.30
2019-03-12T21:33:49.763Z,2.00
2019-03-12T21:36:23.668Z,2.13
2019-03-12T21:38:56.764Z,1.93
2019-03-12T21:41:31.163Z,2.60
2019-03-12T21:44:08.479Z,1.47
2019-03-12T21:46:41.679Z,3.10
2019-03-12T21:49:14.643Z,2.23
2019-03-12T21:51:46.880Z,1.93
2019-03-12T21:54:19.288Z,2.03
2019-03-12T21:56:51.637Z,2.23
2019-03-12T21:59:23.489Z,1.70
2019-03-12T22:01:56.250Z,2.27
2019-03-12T22:04:28.466Z,1.67
2019-03-12T22:07:00.363Z,2.50
2019-03-12T22:09:33.395Z,2.77
2019-03-12T22:12:05.601Z,2.77
2019-03-12T22:14:38.051Z,2.13
2019-03-12T22:17:09.981Z,1.97
2019-03-12T22:19:41.873Z,2.03
2019-03-12T22:22:33.024Z,2.27
2019-03-12T22:25:06.513Z,4.00
2019-03-12T22:27:38.398Z,2.37
2019-03-12T22:30:14.342Z,3.97
2019-03-12T22:32:46.830Z,2.97
2019-03-12T22:35:19.195Z,2.00
2019-03-12T22:37:51.139Z,3.07
2019-03-12T22:40:23.001Z,1.90
2019-03-12T22:42:55.418Z,2.90
2019-03-12T22:45:27.260Z,2.57
2019-03-12T22:47:59.217Z,2.80
2019-03-12T22:50:31.059Z,2.43
2019-03-12T22:53:02.882Z,2.47
2019-03-12T22:55:35.062Z,2.97
2019-03-12T22:58:07.424Z,2.53
2019-03-12T23:00:58.332Z,2.47
2019-03-12T23:03:48.587Z,2.50
2019-03-12T23:06:38.439Z,2.23
2019-03-12T23:09:29.854Z,3.13
2019-03-12T23:12:04.087Z,2.47
2019-03-12T23:14:37.911Z,2.03
2019-03-12T23:17:10.899Z,2.17
2019-03-12T23:19:44.504Z,4.00
2019-03-12T23:22:17.626Z,2.63
2019-03-12T23:24:49.910Z,2.03
2019-03-12T23:27:21.784Z,3.70
2019-03-12T23:29:53.715Z,2.87
2019-03-12T23:32:25.766Z,2.30
2019-03-12T23:34:58.496Z,3.20
2019-03-12T23:37:30.880Z,3.13
2019-03-12T23:40:02.730Z,2.47
2019-03-12T23:42:34.927Z,2.77
2019-03-12T23:45:07.834Z,2.30
2019-03-12T23:47:39.678Z,2.13
2019-03-12T23:50:12.372Z,1.97
2019-03-12T23:52:45.759Z,2.47
2019-03-12T23:55:19.229Z,2.93
2019-03-12T23:57:51.140Z,3.13
